sensor_id;sensor_type;location;lat;lon;timestamp;pressure;altitude;pressure_sealevel;temperature;humidity
1029;BME280;503;48.120;11.488;2022-10-31T00:01:56;95847.59;;;14.89;64.40
1029;BME280;503;48.120;11.488;2022-10-31T00:04:21;95850.25;;;14.89;64.44
1029;BME280;503;48.120;11.488;2022-10-31T00:06:46;95848.38;;;14.89;64.29
1029;BME280;503;48.120;11.488;2022-10-31T00:09:12;95864.75;;;14.88;64.12
1029;BME280;503;48.120;11.488;2022-10-31T00:11:37;95843.66;;;14.86;64.37
1029;BME280;503;48.120;11.488;2022-10-31T00:14:02;95849.34;;;14.85;64.34
1029;BME280;503;48.120;11.488;2022-10-31T00:16:28;95845.06;;;14.83;64.50
1029;BME280;503;48.120;11.488;2022-10-31T00:18:58;95848.38;;;14.80;64.24
1029;BME280;503;48.120;11.488;2022-10-31T00:21:23;95849.47;;;14.79;64.45
1029;BME280;503;48.120;11.488;2022-10-31T00:23:49;95853.56;;;14.77;64.43
1029;BME280;503;48.120;11.488;2022-10-31T00:26:14;95851.19;;;14.75;64.20
1029;BME280;503;48.120;11.488;2022-10-31T00:28:39;95852.91;;;14.71;64.63
1029;BME280;503;48.120;11.488;2022-10-31T00:31:06;95843.47;;;14.65;64.80
1029;BME280;503;48.120;11.488;2022-10-31T00:33:32;95852.28;;;14.66;64.59
1029;BME280;503;48.120;11.488;2022-10-31T00:35:58;95843.47;;;14.65;64.93
1029;BME280;503;48.120;11.488;2022-10-31T00:38:23;95840.00;;;14.65;64.60
1029;BME280;503;48.120;11.488;2022-10-31T00:40:48;95842.97;;;14.63;64.50
1029;BME280;503;48.120;11.488;2022-10-31T00:43:14;95844.06;;;14.62;64.79
1029;BME280;503;48.120;11.488;2022-10-31T00:45:39;95844.06;;;14.62;64.95
1029;BME280;503;48.120;11.488;2022-10-31T00:48:05;95845.97;;;14.62;64.51
1029;BME280;503;48.120;11.488;2022-10-31T00:50:30;95843.75;;;14.64;64.86
1029;BME280;503;48.120;11.488;2022-10-31T00:52:57;95840.00;;;14.65;64.70
1029;BME280;503;48.120;11.488;2022-10-31T00:55:23;95840.16;;;14.68;64.54
1029;BME280;503;48.120;11.488;2022-10-31T00:57:48;95843.16;;;14.67;64.27
1029;BME280;503;48.120;11.488;2022-10-31T01:00:14;95837.31;;;14.65;64.63
1029;BME280;503;48.120;11.488;2022-10-31T01:02:39;95845.66;;;14.63;64.83
1029;BME280;503;48.120;11.488;2022-10-31T01:05:04;95845.97;;;14.62;64.73
1029;BME280;503;48.120;11.488;2022-10-31T01:07:29;95836.03;;;14.62;64.79
1029;BME280;503;48.120;11.488;2022-10-31T01:09:55;95836.84;;;14.63;64.53
1029;BME280;503;48.120;11.488;2022-10-31T01:12:20;95836.84;;;14.63;64.58
1029;BME280;503;48.120;11.488;2022-10-31T01:14:45;95834.47;;;14.61;64.48
1029;BME280;503;48.120;11.488;2022-10-31T01:17:11;95836.69;;;14.59;64.21
1029;BME280;503;48.120;11.488;2022-10-31T01:19:36;95831.16;;;14.55;64.55
1029;BME280;503;48.120;11.488;2022-10-31T01:22:01;95843.25;;;14.53;64.31
1029;BME280;503;48.120;11.488;2022-10-31T01:24:26;95840.72;;;14.48;64.37
1029;BME280;503;48.120;11.488;2022-10-31T01:26:52;95841.34;;;14.45;64.92
1029;BME280;503;48.120;11.488;2022-10-31T01:29:17;95843.22;;;14.44;64.67
1029;BME280;503;48.120;11.488;2022-10-31T01:31:42;95837.38;;;14.42;64.68
1029;BME280;503;48.120;11.488;2022-10-31T01:34:08;95840.38;;;14.41;64.84
1029;BME280;503;48.120;11.488;2022-10-31T01:36:39;95841.00;;;14.38;64.95
1029;BME280;503;48.120;11.488;2022-10-31T01:39:08;95843.19;;;14.36;65.00
1029;BME280;503;48.120;11.488;2022-10-31T01:41:35;95844.31;;;14.35;65.14
1029;BME280;503;48.120;11.488;2022-10-31T01:44:01;95832.31;;;14.32;65.14
1029;BME280;503;48.120;11.488;2022-10-31T01:46:29;95834.69;;;14.34;65.54
1029;BME280;503;48.120;11.488;2022-10-31T01:48:57;95834.69;;;14.34;65.57
1029;BME280;503;48.120;11.488;2022-10-31T01:51:25;95836.28;;;14.35;65.04
1029;BME280;503;48.120;11.488;2022-10-31T01:53:51;95830.91;;;14.35;65.46
1029;BME280;503;48.120;11.488;2022-10-31T01:56:19;95835.31;;;14.30;65.06
1029;BME280;503;48.120;11.488;2022-10-31T01:58:47;95838.72;;;14.22;65.08
1029;BME280;503;48.120;11.488;2022-10-31T02:01:12;95843.00;;;14.23;65.92
1029;BME280;503;48.120;11.488;2022-10-31T02:03:39;95833.56;;;14.26;65.57
1029;BME280;503;48.120;11.488;2022-10-31T02:06:04;95835.44;;;14.25;65.69
1029;BME280;503;48.120;11.488;2022-10-31T02:08:31;95834.63;;;14.08;66.93
1029;BME280;503;48.120;11.488;2022-10-31T02:10:58;95829.00;;;14.18;66.43
1029;BME280;503;48.120;11.488;2022-10-31T02:13:25;95845.19;;;14.21;65.80
1029;BME280;503;48.120;11.488;2022-10-31T02:15:55;95836.38;;;14.21;65.61
1029;BME280;503;48.120;11.488;2022-10-31T02:18:20;95834.81;;;14.20;65.81
1029;BME280;503;48.120;11.488;2022-10-31T02:23:40;95832.28;;;14.15;65.84
1029;BME280;503;48.120;11.488;2022-10-31T02:26:14;95828.03;;;14.14;65.89
1029;BME280;503;48.120;11.488;2022-10-31T02:31:18;95828.03;;;14.14;65.89
1029;BME280;503;48.120;11.488;2022-10-31T02:33:55;95829.13;;;14.13;66.03
1029;BME280;503;48.120;11.488;2022-10-31T02:36:24;95827.25;;;14.13;66.32
1029;BME280;503;48.120;11.488;2022-10-31T02:41:28;95830.84;;;14.17;66.48
1029;BME280;503;48.120;11.488;2022-10-31T02:46:34;95830.56;;;14.19;66.18
1029;BME280;503;48.120;11.488;2022-10-31T02:49:02;95832.59;;;14.22;66.15
1029;BME280;503;48.120;11.488;2022-10-31T02:51:30;95836.88;;;14.23;65.96
1029;BME280;503;48.120;11.488;2022-10-31T02:53:55;95837.94;;;14.22;66.33
1029;BME280;503;48.120;11.488;2022-10-31T02:56:21;95842.03;;;14.19;66.34
1029;BME280;503;48.120;11.488;2022-10-31T02:58:47;95838.41;;;14.15;66.38
1029;BME280;503;48.120;11.488;2022-10-31T03:03:54;95835.41;;;14.08;66.32
1029;BME280;503;48.120;11.488;2022-10-31T03:06:30;95835.41;;;14.08;66.49
1029;BME280;503;48.120;11.488;2022-10-31T03:12:10;95827.66;;;14.07;66.80
1029;BME280;503;48.120;11.488;2022-10-31T03:15:10;95829.72;;;14.10;66.52
1029;BME280;503;48.120;11.488;2022-10-31T03:17:20;95841.22;;;14.10;66.27
1029;BME280;503;48.120;11.488;2022-10-31T03:19:49;95835.41;;;14.08;66.12
1029;BME280;503;48.120;11.488;2022-10-31T03:22:22;95830.00;;;13.99;66.35
1029;BME280;503;48.120;11.488;2022-10-31T03:24:48;95832.06;;;14.02;67.12
1029;BME280;503;48.120;11.488;2022-10-31T03:27:16;95831.75;;;14.04;67.26
1029;BME280;503;48.120;11.488;2022-10-31T03:29:43;95830.34;;;14.07;66.82
1029;BME280;503;48.120;11.488;2022-10-31T03:32:10;95824.69;;;14.08;66.55
1029;BME280;503;48.120;11.488;2022-10-31T03:34:37;95825.47;;;14.09;66.82
1029;BME280;503;48.120;11.488;2022-10-31T03:37:05;95830.84;;;14.09;66.69
1029;BME280;503;48.120;11.488;2022-10-31T03:39:31;95830.53;;;14.10;66.75
1029;BME280;503;48.120;11.488;2022-10-31T03:42:05;95823.28;;;14.11;66.76
1029;BME280;503;48.120;11.488;2022-10-31T03:44:33;95829.25;;;14.08;66.36
1029;BME280;503;48.120;11.488;2022-10-31T03:46:59;95831.63;;;14.09;66.87
1029;BME280;503;48.120;11.488;2022-10-31T03:49:24;95831.75;;;14.04;66.72
1029;BME280;503;48.120;11.488;2022-10-31T03:51:55;95799.69;;;13.73;66.87
1029;BME280;503;48.120;11.488;2022-10-31T03:54:27;95834.25;;;14.00;67.24
1029;BME280;503;48.120;11.488;2022-10-31T03:57:01;95832.53;;;14.04;66.61
1029;BME280;503;48.120;11.488;2022-10-31T03:59:32;95835.81;;;14.01;66.25
1029;BME280;503;48.120;11.488;2022-10-31T04:01:59;95836.72;;;13.88;66.69
1029;BME280;503;48.120;11.488;2022-10-31T04:04:26;95836.97;;;13.47;68.87
1029;BME280;503;48.120;11.488;2022-10-31T04:06:52;95833.13;;;13.39;69.26
1029;BME280;503;48.120;11.488;2022-10-31T04:09:18;95838.34;;;13.67;68.66
1029;BME280;503;48.120;11.488;2022-10-31T04:11:47;95828.47;;;13.76;67.91
1029;BME280;503;48.120;11.488;2022-10-31T04:14:14;95835.56;;;13.81;67.51
1029;BME280;503;48.120;11.488;2022-10-31T04:16:40;95829.63;;;13.84;67.12
1029;BME280;503;48.120;11.488;2022-10-31T04:19:06;95826.31;;;13.87;67.22
1029;BME280;503;48.120;11.488;2022-10-31T04:21:31;95833.91;;;13.62;67.75
1029;BME280;503;48.120;11.488;2022-10-31T04:23:56;95839.16;;;13.76;67.40
1029;BME280;503;48.120;11.488;2022-10-31T04:26:22;95833.22;;;13.79;66.61
1029;BME280;503;48.120;11.488;2022-10-31T04:28:47;95831.91;;;13.68;67.44
1029;BME280;503;48.120;11.488;2022-10-31T04:31:13;95837.72;;;13.70;66.94
1029;BME280;503;48.120;11.488;2022-10-31T04:33:39;95838.94;;;13.64;66.81
1029;BME280;503;48.120;11.488;2022-10-31T04:36:04;95846.19;;;13.63;67.00
1029;BME280;503;48.120;11.488;2022-10-31T04:38:32;95841.31;;;13.65;66.72
1029;BME280;503;48.120;11.488;2022-10-31T04:40:57;95833.41;;;13.60;66.57
1029;BME280;503;48.120;11.488;2022-10-31T04:43:22;95854.00;;;13.60;66.38
1029;BME280;503;48.120;11.488;2022-10-31T04:45:48;95836.72;;;13.57;66.39
1029;BME280;503;48.120;11.488;2022-10-31T04:48:13;95839.19;;;13.53;66.24
1029;BME280;503;48.120;11.488;2022-10-31T04:50:38;95839.50;;;13.52;66.45
1029;BME280;503;48.120;11.488;2022-10-31T04:53:03;95833.66;;;13.50;66.08
1029;BME280;503;48.120;11.488;2022-10-31T04:55:29;95839.78;;;13.50;66.44
1029;BME280;503;48.120;11.488;2022-10-31T04:57:54;95833.97;;;13.48;66.39
1029;BME280;503;48.120;11.488;2022-10-31T05:00:20;95838.84;;;13.46;66.24
1029;BME280;503;48.120;11.488;2022-10-31T05:02:46;95837.25;;;13.45;66.30
1029;BME280;503;48.120;11.488;2022-10-31T05:05:12;95839.44;;;13.43;66.13
1029;BME280;503;48.120;11.488;2022-10-31T05:07:38;95835.50;;;13.41;66.27
1029;BME280;503;48.120;11.488;2022-10-31T05:10:05;95836.13;;;13.38;66.19
1029;BME280;503;48.120;11.488;2022-10-31T05:12:30;95834.03;;;13.35;66.54
1029;BME280;503;48.120;11.488;2022-10-31T05:14:55;95834.34;;;13.33;66.45
1029;BME280;503;48.120;11.488;2022-10-31T05:17:21;95829.00;;;13.33;66.43
1029;BME280;503;48.120;11.488;2022-10-31T05:19:46;95826.66;;;13.32;66.62
1029;BME280;503;48.120;11.488;2022-10-31T05:22:11;95825.34;;;13.29;66.30
1029;BME280;503;48.120;11.488;2022-10-31T05:24:36;95823.31;;;13.26;66.26
1029;BME280;503;48.120;11.488;2022-10-31T05:27:01;95824.38;;;13.25;66.06
1029;BME280;503;48.120;11.488;2022-10-31T05:29:27;95827.69;;;13.22;66.43
1029;BME280;503;48.120;11.488;2022-10-31T05:31:52;95827.69;;;13.22;66.16
1029;BME280;503;48.120;11.488;2022-10-31T05:34:17;95826.66;;;13.18;66.17
1029;BME280;503;48.120;11.488;2022-10-31T05:36:42;95824.47;;;13.20;66.20
1029;BME280;503;48.120;11.488;2022-10-31T05:39:08;95812.84;;;13.16;66.25
1029;BME280;503;48.120;11.488;2022-10-31T05:41:33;95816.56;;;13.15;66.52
1029;BME280;503;48.120;11.488;2022-10-31T05:43:58;95821.88;;;13.06;66.87
1029;BME280;503;48.120;11.488;2022-10-31T05:46:23;95817.13;;;13.03;67.46
1029;BME280;503;48.120;11.488;2022-10-31T05:48:49;95808.41;;;13.11;67.28
1029;BME280;503;48.120;11.488;2022-10-31T05:51:14;95806.50;;;13.12;66.88
1029;BME280;503;48.120;11.488;2022-10-31T05:53:39;95807.00;;;13.14;67.10
1029;BME280;503;48.120;11.488;2022-10-31T05:56:04;95802.63;;;13.18;67.12
1029;BME280;503;48.120;11.488;2022-10-31T05:58:29;95815.66;;;13.19;67.12
1029;BME280;503;48.120;11.488;2022-10-31T06:00:55;95805.53;;;13.21;66.82
1029;BME280;503;48.120;11.488;2022-10-31T06:03:20;95802.53;;;13.23;66.79
1029;BME280;503;48.120;11.488;2022-10-31T06:05:45;95808.66;;;13.23;66.79
1029;BME280;503;48.120;11.488;2022-10-31T06:08:10;95814.97;;;13.27;66.84
1029;BME280;503;48.120;11.488;2022-10-31T06:10:35;95814.34;;;13.31;66.69
1029;BME280;503;48.120;11.488;2022-10-31T06:13:00;95823.34;;;13.35;66.91
1029;BME280;503;48.120;11.488;2022-10-31T06:15:26;95817.88;;;13.40;66.83
1029;BME280;503;48.120;11.488;2022-10-31T06:18:01;95815.41;;;13.43;66.86
1029;BME280;503;48.120;11.488;2022-10-31T06:20:26;95832.41;;;13.47;66.84
1029;BME280;503;48.120;11.488;2022-10-31T06:22:52;95826.94;;;13.52;66.44
1029;BME280;503;48.120;11.488;2022-10-31T06:25:17;95829.28;;;13.54;65.94
1029;BME280;503;48.120;11.488;2022-10-31T06:27:42;95835.94;;;13.57;66.05
1029;BME280;503;48.120;11.488;2022-10-31T06:30:07;95832.03;;;13.63;66.16
1029;BME280;503;48.120;11.488;2022-10-31T06:32:33;95826.06;;;13.66;65.96
1029;BME280;503;48.120;11.488;2022-10-31T06:34:58;95830.00;;;13.68;65.53
1029;BME280;503;48.120;11.488;2022-10-31T06:37:23;95822.97;;;13.72;65.36
1029;BME280;503;48.120;11.488;2022-10-31T06:39:49;95822.34;;;13.75;65.16
1029;BME280;503;48.120;11.488;2022-10-31T06:42:15;95823.31;;;13.79;65.40
1029;BME280;503;48.120;11.488;2022-10-31T06:44:40;95822.84;;;13.86;65.04
1029;BME280;503;48.120;11.488;2022-10-31T06:47:05;95824.31;;;13.92;65.00
1029;BME280;503;48.120;11.488;2022-10-31T06:49:31;95825.91;;;13.93;64.68
1029;BME280;503;48.120;11.488;2022-10-31T06:51:56;95819.63;;;13.98;65.21
1029;BME280;503;48.120;11.488;2022-10-31T06:54:21;95822.44;;;14.01;64.98
1029;BME280;503;48.120;11.488;2022-10-31T06:56:47;95823.09;;;14.07;64.96
1029;BME280;503;48.120;11.488;2022-10-31T06:59:12;95824.06;;;14.11;64.84
1029;BME280;503;48.120;11.488;2022-10-31T07:01:37;95832.28;;;14.15;64.76
1029;BME280;503;48.120;11.488;2022-10-31T07:04:02;95830.84;;;14.17;64.85
1029;BME280;503;48.120;11.488;2022-10-31T07:06:28;95836.72;;;14.28;64.54
1029;BME280;503;48.120;11.488;2022-10-31T07:08:53;95835.16;;;14.36;64.36
1029;BME280;503;48.120;11.488;2022-10-31T07:11:18;95826.38;;;14.44;64.68
1029;BME280;503;48.120;11.488;2022-10-31T07:13:43;95827.38;;;14.56;64.05
1029;BME280;503;48.120;11.488;2022-10-31T07:16:08;95827.41;;;14.65;63.86
1029;BME280;503;48.120;11.488;2022-10-31T07:18:36;95831.97;;;14.73;64.05
1029;BME280;503;48.120;11.488;2022-10-31T07:21:02;95836.88;;;14.80;63.73
1029;BME280;503;48.120;11.488;2022-10-31T07:23:27;95834.34;;;14.92;63.72
1029;BME280;503;48.120;11.488;2022-10-31T07:25:55;95829.47;;;15.03;63.74
1029;BME280;503;48.120;11.488;2022-10-31T07:28:21;95836.09;;;15.14;63.62
1029;BME280;503;48.120;11.488;2022-10-31T07:30:53;95825.84;;;15.25;63.10
1029;BME280;503;48.120;11.488;2022-10-31T07:33:19;95831.97;;;15.34;63.00
1029;BME280;503;48.120;11.488;2022-10-31T07:35:44;95831.03;;;15.47;62.86
1029;BME280;503;48.120;11.488;2022-10-31T07:38:09;95828.81;;;15.58;62.76
1029;BME280;503;48.120;11.488;2022-10-31T07:40:35;95833.22;;;15.71;62.57
1029;BME280;503;48.120;11.488;2022-10-31T07:43:01;95833.69;;;15.82;62.42
1029;BME280;503;48.120;11.488;2022-10-31T07:45:26;95829.06;;;15.91;61.96
1029;BME280;503;48.120;11.488;2022-10-31T07:47:51;95832.16;;;16.02;61.91
1029;BME280;503;48.120;11.488;2022-10-31T07:50:18;95824.09;;;16.10;61.67
1029;BME280;503;48.120;11.488;2022-10-31T07:52:44;95830.81;;;16.25;61.51
1029;BME280;503;48.120;11.488;2022-10-31T07:55:09;95824.75;;;16.37;61.13
1029;BME280;503;48.120;11.488;2022-10-31T07:57:35;95824.75;;;16.37;60.45
1029;BME280;503;48.120;11.488;2022-10-31T08:00:02;95819.50;;;16.49;60.17
1029;BME280;503;48.120;11.488;2022-10-31T08:02:27;95818.00;;;16.60;59.98
1029;BME280;503;48.120;11.488;2022-10-31T08:04:53;95821.13;;;16.71;59.83
1029;BME280;503;48.120;11.488;2022-10-31T08:07:18;95817.28;;;16.81;59.75
1029;BME280;503;48.120;11.488;2022-10-31T08:09:43;95814.19;;;16.91;59.55
1029;BME280;503;48.120;11.488;2022-10-31T08:12:08;95813.31;;;16.99;59.29
1029;BME280;503;48.120;11.488;2022-10-31T08:14:34;95807.25;;;17.11;59.38
1029;BME280;503;48.120;11.488;2022-10-31T08:16:59;95810.75;;;17.24;59.11
1029;BME280;503;48.120;11.488;2022-10-31T08:19:24;95800.84;;;17.36;58.92
1029;BME280;503;48.120;11.488;2022-10-31T08:21:50;95807.72;;;17.46;58.62
1029;BME280;503;48.120;11.488;2022-10-31T08:24:16;95803.03;;;17.55;58.62
1029;BME280;503;48.120;11.488;2022-10-31T08:26:41;95796.34;;;17.61;58.53
1029;BME280;503;48.120;11.488;2022-10-31T08:29:06;95795.91;;;17.72;58.11
1029;BME280;503;48.120;11.488;2022-10-31T08:31:31;95795.53;;;17.82;57.90
1029;BME280;503;48.120;11.488;2022-10-31T08:33:57;95791.22;;;17.81;57.77
1029;BME280;503;48.120;11.488;2022-10-31T08:36:22;95791.06;;;17.98;57.89
1029;BME280;503;48.120;11.488;2022-10-31T08:38:47;95786.66;;;18.06;57.91
1029;BME280;503;48.120;11.488;2022-10-31T08:41:13;95780.97;;;18.19;57.75
1029;BME280;503;48.120;11.488;2022-10-31T08:43:38;95777.38;;;18.28;57.23
1029;BME280;503;48.120;11.488;2022-10-31T08:46:03;95782.75;;;18.40;57.12
1029;BME280;503;48.120;11.488;2022-10-31T08:48:29;95783.19;;;18.54;57.30
1029;BME280;503;48.120;11.488;2022-10-31T08:50:55;95773.41;;;18.62;57.24
1029;BME280;503;48.120;11.488;2022-10-31T08:53:21;95770.97;;;18.69;57.25
1029;BME280;503;48.120;11.488;2022-10-31T08:55:47;95762.06;;;18.81;57.06
1029;BME280;503;48.120;11.488;2022-10-31T08:58:14;95760.44;;;18.92;57.05
1029;BME280;503;48.120;11.488;2022-10-31T09:00:39;95757.88;;;18.95;56.52
1029;BME280;503;48.120;11.488;2022-10-31T09:03:06;95750.75;;;19.03;56.23
1029;BME280;503;48.120;11.488;2022-10-31T09:05:32;95752.16;;;19.13;55.96
1029;BME280;503;48.120;11.488;2022-10-31T09:07:57;95754.97;;;19.16;55.93
1029;BME280;503;48.120;11.488;2022-10-31T09:10:23;95751.53;;;19.32;55.84
1029;BME280;503;48.120;11.488;2022-10-31T09:12:59;95754.16;;;19.44;55.55
1029;BME280;503;48.120;11.488;2022-10-31T09:15:25;95751.63;;;19.63;55.01
1029;BME280;503;48.120;11.488;2022-10-31T09:17:51;95749.63;;;19.76;54.55
1029;BME280;503;48.120;11.488;2022-10-31T09:20:16;95745.69;;;19.89;53.97
1029;BME280;503;48.120;11.488;2022-10-31T09:22:41;95748.84;;;20.07;53.72
1029;BME280;503;48.120;11.488;2022-10-31T09:25:07;95743.19;;;20.12;53.74
1029;BME280;503;48.120;11.488;2022-10-31T09:27:32;95746.31;;;20.14;53.13
1029;BME280;503;48.120;11.488;2022-10-31T09:29:57;95737.53;;;20.37;52.98
1029;BME280;503;48.120;11.488;2022-10-31T09:32:22;95743.81;;;20.41;52.06
1029;BME280;503;48.120;11.488;2022-10-31T09:34:47;95740.53;;;20.47;52.43
1029;BME280;503;48.120;11.488;2022-10-31T09:37:13;95735.28;;;20.55;52.33
1029;BME280;503;48.120;11.488;2022-10-31T09:39:38;95738.41;;;20.57;52.02
1029;BME280;503;48.120;11.488;2022-10-31T09:44:51;95728.19;;;20.66;51.65
1029;BME280;503;48.120;11.488;2022-10-31T09:47:40;95721.63;;;20.67;51.77
1029;BME280;503;48.120;11.488;2022-10-31T09:52:38;95718.38;;;20.77;51.30
1029;BME280;503;48.120;11.488;2022-10-31T09:55:19;95720.94;;;20.89;51.20
1029;BME280;503;48.120;11.488;2022-10-31T09:57:46;95721.44;;;20.95;50.50
1029;BME280;503;48.120;11.488;2022-10-31T10:00:16;95718.59;;;21.07;50.12
1029;BME280;503;48.120;11.488;2022-10-31T10:02:50;95713.53;;;21.25;49.54
1029;BME280;503;48.120;11.488;2022-10-31T10:05:21;95713.94;;;21.46;49.45
1029;BME280;503;48.120;11.488;2022-10-31T10:10:20;95711.91;;;21.86;48.11
1029;BME280;503;48.120;11.488;2022-10-31T10:12:51;95705.88;;;21.96;47.40
1029;BME280;503;48.120;11.488;2022-10-31T10:17:59;95707.09;;;22.25;45.50
1029;BME280;503;48.120;11.488;2022-10-31T10:20:43;95705.53;;;22.50;45.57
1029;BME280;503;48.120;11.488;2022-10-31T10:26:01;95705.34;;;22.66;43.16
1029;BME280;503;48.120;11.488;2022-10-31T10:28:35;95701.66;;;22.81;42.44
1029;BME280;503;48.120;11.488;2022-10-31T10:33:43;95692.78;;;23.15;41.32
1029;BME280;503;48.120;11.488;2022-10-31T10:36:22;95691.91;;;23.41;40.96
1029;BME280;503;48.120;11.488;2022-10-31T10:39:02;95689.34;;;23.58;40.29
1029;BME280;503;48.120;11.488;2022-10-31T10:41:29;95684.84;;;23.73;39.84
1029;BME280;503;48.120;11.488;2022-10-31T10:43:55;95684.94;;;23.84;39.02
1029;BME280;503;48.120;11.488;2022-10-31T10:59:11;95672.44;;;24.27;38.48
1029;BME280;503;48.120;11.488;2022-10-31T11:01:38;95664.03;;;24.50;38.53
1029;BME280;503;48.120;11.488;2022-10-31T11:04:05;95596.28;;;24.17;38.23
1029;BME280;503;48.120;11.488;2022-10-31T11:06:33;95654.81;;;24.69;38.13
1029;BME280;503;48.120;11.488;2022-10-31T11:08:58;95654.47;;;24.85;37.73
1029;BME280;503;48.120;11.488;2022-10-31T11:11:33;95656.84;;;24.97;37.36
1029;BME280;503;48.120;11.488;2022-10-31T11:14:19;95654.22;;;25.15;37.70
1029;BME280;503;48.120;11.488;2022-10-31T11:16:46;95642.16;;;25.23;36.87
1029;BME280;503;48.120;11.488;2022-10-31T11:21:39;95649.22;;;25.49;36.89
1029;BME280;503;48.120;11.488;2022-10-31T11:24:15;95646.91;;;25.55;35.59
1029;BME280;503;48.120;11.488;2022-10-31T11:26:42;95636.78;;;25.70;35.62
1029;BME280;503;48.120;11.488;2022-10-31T11:29:15;95630.94;;;25.92;35.40
1029;BME280;503;48.120;11.488;2022-10-31T11:31:40;95627.06;;;25.93;34.41
1029;BME280;503;48.120;11.488;2022-10-31T11:34:12;95624.34;;;26.01;33.79
1029;BME280;503;48.120;11.488;2022-10-31T11:36:38;95623.94;;;25.95;33.70
1029;BME280;503;48.120;11.488;2022-10-31T11:39:13;95615.78;;;25.91;33.64
1029;BME280;503;48.120;11.488;2022-10-31T11:41:40;95626.66;;;25.84;33.74
1029;BME280;503;48.120;11.488;2022-10-31T11:44:12;95613.84;;;25.85;34.27
1029;BME280;503;48.120;11.488;2022-10-31T11:46:40;95611.09;;;25.88;34.67
1029;BME280;503;48.120;11.488;2022-10-31T11:49:11;95607.19;;;25.89;33.97
1029;BME280;503;48.120;11.488;2022-10-31T11:51:38;95611.06;;;25.74;34.27
1029;BME280;503;48.120;11.488;2022-10-31T11:54:04;95608.75;;;25.73;34.45
1029;BME280;503;48.120;11.488;2022-10-31T11:56:40;95613.44;;;25.65;34.41
1029;BME280;503;48.120;11.488;2022-10-31T11:59:14;95601.38;;;25.66;33.67
1029;BME280;503;48.120;11.488;2022-10-31T12:01:40;95600.56;;;25.40;34.07
1029;BME280;503;48.120;11.488;2022-10-31T12:04:11;95602.13;;;25.20;34.41
1029;BME280;503;48.120;11.488;2022-10-31T12:06:38;95590.06;;;25.35;34.53
1029;BME280;503;48.120;11.488;2022-10-31T12:09:37;95588.50;;;25.20;34.03
1029;BME280;503;48.120;11.488;2022-10-31T12:17:03;95592.38;;;25.08;34.66
1029;BME280;503;48.120;11.488;2022-10-31T12:22:08;95606.38;;;25.14;34.87
1029;BME280;503;48.120;11.488;2022-10-31T12:32:35;95581.13;;;25.31;34.11
1029;BME280;503;48.120;11.488;2022-10-31T12:40:03;95575.59;;;25.03;34.93
1029;BME280;503;48.120;11.488;2022-10-31T12:42:50;95579.16;;;25.32;34.62
1029;BME280;503;48.120;11.488;2022-10-31T12:48:08;95570.63;;;25.62;34.40
1029;BME280;503;48.120;11.488;2022-10-31T12:50:53;95568.28;;;25.71;33.82
1029;BME280;503;48.120;11.488;2022-10-31T12:53:31;95561.28;;;25.77;33.78
1029;BME280;503;48.120;11.488;2022-10-31T12:58:34;95544.16;;;25.70;34.11
1029;BME280;503;48.120;11.488;2022-10-31T13:01:12;95544.13;;;25.59;33.96
1029;BME280;503;48.120;11.488;2022-10-31T13:03:42;95541.41;;;25.62;34.26
1029;BME280;503;48.120;11.488;2022-10-31T13:06:09;95535.59;;;25.57;34.03
1029;BME280;503;48.120;11.488;2022-10-31T13:08:39;95536.78;;;25.34;34.45
1029;BME280;503;48.120;11.488;2022-10-31T13:15:58;95534.44;;;25.15;35.31
1029;BME280;503;48.120;11.488;2022-10-31T13:18:38;95521.63;;;25.08;35.58
1029;BME280;503;48.120;11.488;2022-10-31T13:21:08;95519.22;;;24.93;35.79
1029;BME280;503;48.120;11.488;2022-10-31T13:23:35;95519.22;;;24.89;36.47
1029;BME280;503;48.120;11.488;2022-10-31T13:26:03;95528.88;;;24.54;36.93
1029;BME280;503;48.120;11.488;2022-10-31T13:31:02;95517.94;;;24.40;37.56
1029;BME280;503;48.120;11.488;2022-10-31T13:33:29;95518.72;;;24.37;37.63
1029;BME280;503;48.120;11.488;2022-10-31T13:41:06;95517.06;;;24.25;38.33
1029;BME280;503;48.120;11.488;2022-10-31T13:46:20;95511.34;;;24.37;38.39
1029;BME280;503;48.120;11.488;2022-10-31T13:48:46;95507.41;;;24.28;38.86
1029;BME280;503;48.120;11.488;2022-10-31T13:51:11;95512.13;;;24.38;38.77
1029;BME280;503;48.120;11.488;2022-10-31T13:58:33;95503.63;;;24.54;38.61
1029;BME280;503;48.120;11.488;2022-10-31T14:03:30;95501.69;;;24.61;38.63
1029;BME280;503;48.120;11.488;2022-10-31T14:05:56;95499.75;;;24.69;38.55
1029;BME280;503;48.120;11.488;2022-10-31T14:08:22;95490.81;;;24.65;38.65
1029;BME280;503;48.120;11.488;2022-10-31T14:10:49;95490.03;;;24.72;38.80
1029;BME280;503;48.120;11.488;2022-10-31T14:13:30;95485.03;;;24.77;38.76
1029;BME280;503;48.120;11.488;2022-10-31T14:15:57;95484.63;;;24.79;38.67
1029;BME280;503;48.120;11.488;2022-10-31T14:18:24;95482.69;;;24.79;38.38
1029;BME280;503;48.120;11.488;2022-10-31T14:20:49;95478.03;;;24.83;38.39
1029;BME280;503;48.120;11.488;2022-10-31T14:28:39;95471.78;;;24.69;38.62
1029;BME280;503;48.120;11.488;2022-10-31T14:31:24;95461.31;;;24.67;38.99
1029;BME280;503;48.120;11.488;2022-10-31T14:33:49;95463.97;;;24.56;39.10
1029;BME280;503;48.120;11.488;2022-10-31T14:36:24;95468.25;;;24.47;39.12
1029;BME280;503;48.120;11.488;2022-10-31T14:39:02;95462.72;;;24.29;39.88
1029;BME280;503;48.120;11.488;2022-10-31T14:41:43;95463.81;;;24.03;40.32
1029;BME280;503;48.120;11.488;2022-10-31T14:44:30;95456.00;;;23.91;40.59
1029;BME280;503;48.120;11.488;2022-10-31T14:49:48;95455.72;;;23.41;42.02
1029;BME280;503;48.120;11.488;2022-10-31T14:52:16;95451.13;;;23.52;41.89
1029;BME280;503;48.120;11.488;2022-10-31T14:55:04;95451.50;;;23.54;42.39
1029;BME280;503;48.120;11.488;2022-10-31T14:57:31;95457.31;;;23.49;42.50
1029;BME280;503;48.120;11.488;2022-10-31T15:00:01;95448.38;;;23.45;42.66
1029;BME280;503;48.120;11.488;2022-10-31T15:02:38;95444.50;;;23.46;42.85
1029;BME280;503;48.120;11.488;2022-10-31T15:05:10;95447.97;;;23.43;43.04
1029;BME280;503;48.120;11.488;2022-10-31T15:07:35;95452.94;;;23.33;43.30
1029;BME280;503;48.120;11.488;2022-10-31T15:10:05;95448.31;;;23.34;43.26